Time;durP1;ratioP1;P1;durP2;ratioP2;P2;SDS_P1;SDS_P2;PMS_P1;PMS_P2;Temp;Humidity;BMP_temperature;BMP_pressure;BME280_temperature;BME280_humidity;BME280_pressure;Samples;Min_cycle;Max_cycle;Signal;HPM_P1;HPM_P2
2023/12/05 00:00:26;;;;;;;42.53;14.90;;;-4.20;99.90;;;;;;4456823;27;659441;-69
2023/12/05 00:03:13;;;;;;;39.93;14.50;;;-4.20;99.90;;;;;;4435159;27;659444;-69
2023/12/05 00:06:00;;;;;;;43.90;13.27;;;-4.10;99.90;;;;;;4459151;27;661219;-69
2023/12/05 00:08:47;;;;;;;40.22;14.57;;;-4.10;99.90;;;;;;4438824;27;660286;-69
2023/12/05 00:11:35;;;;;;;41.57;14.10;;;-4.10;99.90;;;;;;4458339;27;660586;-69
2023/12/05 00:14:24;;;;;;;41.33;15.13;;;-4.20;99.90;;;;;;4450571;28;660211;-69
2023/12/05 00:17:11;;;;;;;33.73;12.77;;;-4.30;99.90;;;;;;4456985;28;660363;-69
2023/12/05 00:19:58;;;;;;;47.57;14.77;;;-4.20;99.90;;;;;;4439777;27;659506;-69
2023/12/05 00:22:45;;;;;;;43.17;15.33;;;-4.20;99.90;;;;;;4456366;27;660201;-69
2023/12/05 00:25:33;;;;;;;38.83;15.43;;;-4.20;99.90;;;;;;4432382;27;659507;-70
2023/12/05 00:28:20;;;;;;;40.60;13.47;;;-4.10;99.90;;;;;;4458581;27;660591;-69
2023/12/05 00:31:09;;;;;;;41.70;14.17;;;-4.10;99.90;;;;;;4449424;27;661315;-70
2023/12/05 00:33:56;;;;;;;41.90;13.77;;;-4.10;99.90;;;;;;4450644;27;662103;-69
2023/12/05 00:36:43;;;;;;;40.63;13.70;;;-4.10;99.90;;;;;;4439073;27;660420;-70
2023/12/05 00:39:30;;;;;;;32.03;12.00;;;-4.00;99.90;;;;;;4448766;27;660891;-69
2023/12/05 00:42:18;;;;;;;34.80;12.83;;;-4.00;99.90;;;;;;4436443;27;660480;-70
2023/12/05 00:45:06;;;;;;;40.77;14.03;;;-3.90;99.90;;;;;;4460120;27;661759;-69
2023/12/05 00:47:54;;;;;;;38.37;13.90;;;-3.90;99.90;;;;;;4440918;27;660097;-69
2023/12/05 00:50:42;;;;;;;35.00;14.00;;;-3.90;99.90;;;;;;4460425;27;659287;-69
2023/12/05 00:53:29;;;;;;;37.50;13.47;;;-3.90;99.90;;;;;;4428924;27;659702;-69
2023/12/05 00:56:17;;;;;;;36.43;14.43;;;-3.90;99.90;;;;;;4459728;28;660440;-69
2023/12/05 00:59:05;;;;;;;45.57;15.60;;;-3.90;99.90;;;;;;4441360;27;660020;-69
2023/12/05 01:01:52;;;;;;;37.00;13.87;;;-3.90;99.90;;;;;;4444771;27;660041;-69
2023/12/05 01:04:40;;;;;;;40.47;15.17;;;-3.90;99.90;;;;;;4428491;27;659962;-69
2023/12/05 01:07:27;;;;;;;44.83;15.60;;;-3.90;99.90;;;;;;4433631;27;660468;-69
2023/12/05 01:10:15;;;;;;;33.67;13.23;;;-3.90;99.90;;;;;;4461713;27;660579;-69
2023/12/05 01:13:03;;;;;;;36.17;14.97;;;-3.90;99.90;;;;;;4451412;27;659690;-70
2023/12/05 01:15:50;;;;;;;39.70;14.80;;;-3.90;99.90;;;;;;4450777;27;660897;-69
2023/12/05 01:18:37;;;;;;;52.50;15.70;;;-4.00;99.90;;;;;;4447751;28;659745;-70
2023/12/05 01:21:26;;;;;;;37.17;14.40;;;-4.00;99.90;;;;;;4443324;27;660812;-69
2023/12/05 01:24:13;;;;;;;40.87;14.47;;;-4.00;99.90;;;;;;4439436;27;659746;-69
2023/12/05 01:27:00;;;;;;;40.93;14.60;;;-4.00;99.90;;;;;;4458037;27;659890;-69
2023/12/05 01:29:48;;;;;;;40.73;15.03;;;-4.00;99.90;;;;;;4438989;27;660079;-70
2023/12/05 01:32:35;;;;;;;32.30;13.73;;;-4.00;99.90;;;;;;4443473;27;660621;-70
2023/12/05 01:35:22;;;;;;;38.35;13.68;;;-4.00;99.90;;;;;;4431810;27;659796;-69
2023/12/05 01:38:11;;;;;;;36.50;13.23;;;-3.90;99.90;;;;;;4439557;28;660247;-69
2023/12/05 01:40:58;;;;;;;42.17;12.77;;;-3.90;99.90;;;;;;4433729;27;660265;-69
2023/12/05 01:43:46;;;;;;;39.37;14.50;;;-3.90;99.90;;;;;;4456384;28;660346;-70
2023/12/05 01:46:33;;;;;;;30.77;12.90;;;-3.90;99.90;;;;;;4440148;27;659779;-70
2023/12/05 01:49:20;;;;;;;30.17;12.17;;;-3.90;99.90;;;;;;4441428;28;660737;-69
2023/12/05 01:52:07;;;;;;;34.33;11.97;;;-3.90;99.90;;;;;;4444274;28;659907;-69
2023/12/05 01:54:56;;;;;;;31.38;12.02;;;-3.90;99.90;;;;;;4457271;27;660467;-70
2023/12/05 01:57:43;;;;;;;30.70;12.30;;;-3.90;99.90;;;;;;4431527;27;660817;-70
2023/12/05 02:00:30;;;;;;;39.67;13.23;;;-4.00;99.90;;;;;;4460690;28;660660;-70
2023/12/05 02:03:17;;;;;;;38.57;13.83;;;-4.00;99.90;;;;;;4422832;28;659408;-70
2023/12/05 02:06:05;;;;;;;36.87;13.00;;;-4.00;99.90;;;;;;4451607;28;660355;-70
2023/12/05 02:08:53;;;;;;;34.65;13.40;;;-4.00;99.90;;;;;;4437461;28;659550;-70
2023/12/05 02:11:43;;;;;;;30.47;13.20;;;-4.00;99.90;;;;;;4459659;28;660576;-70
2023/12/05 02:14:30;;;;;;;35.60;13.27;;;-4.00;99.90;;;;;;4425678;28;660075;-70
2023/12/05 02:17:20;;;;;;;38.63;14.00;;;-4.10;99.90;;;;;;4436893;28;660390;-70
2023/12/05 02:20:11;;;;;;;35.60;14.75;;;-4.20;99.90;;;;;;4436533;28;659677;-70
2023/12/05 02:23:32;;;;;;;35.60;14.93;;;-4.30;99.90;;;;;;4429883;27;660281;-70
2023/12/05 02:26:24;;;;;;;42.40;15.47;;;-4.40;99.90;;;;;;4402136;27;660061;-70
2023/12/05 02:29:13;;;;;;;36.50;15.00;;;-4.50;99.90;;;;;;4442119;27;659633;-70
2023/12/05 02:32:00;;;;;;;37.10;14.10;;;-4.60;99.90;;;;;;4435912;27;660143;-70
2023/12/05 02:34:48;;;;;;;38.95;15.80;;;-4.60;99.90;;;;;;4434168;27;660871;-70
2023/12/05 02:37:41;;;;;;;43.53;15.23;;;-4.60;99.90;;;;;;4457922;27;661220;-70
2023/12/05 02:40:30;;;;;;;41.43;15.50;;;-4.60;99.90;;;;;;4441487;27;659499;-70
2023/12/05 02:43:20;;;;;;;42.30;16.13;;;-4.50;99.90;;;;;;4453171;27;659875;-70
2023/12/05 02:46:10;;;;;;;42.00;15.68;;;-4.50;99.90;;;;;;4439198;27;660532;-69
2023/12/05 02:48:57;;;;;;;39.87;14.20;;;-4.50;99.90;;;;;;4458620;28;660268;-69
2023/12/05 02:51:44;;;;;;;42.73;15.17;;;-4.60;99.90;;;;;;4460538;27;660111;-70
2023/12/05 02:54:32;;;;;;;39.73;15.10;;;-4.60;99.90;;;;;;4450555;27;659689;-70
2023/12/05 02:57:19;;;;;;;47.00;15.13;;;-4.70;99.90;;;;;;4436866;27;660071;-69
2023/12/05 03:00:08;;;;;;;48.63;16.20;;;-4.70;99.90;;;;;;4458828;27;659523;-70
2023/12/05 03:02:56;;;;;;;42.33;15.77;;;-4.80;99.90;;;;;;4432365;27;660800;-70
2023/12/05 03:05:44;;;;;;;34.87;13.00;;;-4.90;99.90;;;;;;4439684;27;659410;-69
2023/12/05 03:08:31;;;;;;;41.37;13.73;;;-5.00;99.90;;;;;;4448969;28;659537;-69
2023/12/05 03:11:18;;;;;;;44.20;14.17;;;-5.00;99.90;;;;;;4437955;27;659648;-69
2023/12/05 03:14:05;;;;;;;39.67;14.00;;;-5.10;99.90;;;;;;4463709;27;659676;-70
2023/12/05 03:16:52;;;;;;;40.58;14.82;;;-5.20;99.90;;;;;;4441311;27;659774;-70
2023/12/05 03:19:41;;;;;;;41.93;15.13;;;-5.30;99.90;;;;;;4457491;27;660978;-70
2023/12/05 03:22:28;;;;;;;39.07;14.90;;;-5.50;99.90;;;;;;4437420;27;660025;-70
2023/12/05 03:25:16;;;;;;;38.03;13.77;;;-5.50;99.90;;;;;;4461227;28;661605;-70
2023/12/05 03:28:03;;;;;;;38.23;15.23;;;-5.60;99.90;;;;;;4439111;27;660460;-70
2023/12/05 03:30:50;;;;;;;38.37;14.27;;;-5.80;99.90;;;;;;4464006;27;659877;-70
2023/12/05 03:33:37;;;;;;;43.13;14.70;;;-5.90;99.90;;;;;;4443307;27;659737;-69
2023/12/05 03:36:26;;;;;;;39.77;14.47;;;-6.00;99.90;;;;;;4447436;27;661056;-70
2023/12/05 03:39:14;;;;;;;41.13;14.80;;;-6.00;99.90;;;;;;4425732;27;660298;-70
2023/12/05 03:42:01;;;;;;;43.07;15.43;;;-6.10;99.90;;;;;;4456621;27;659497;-70
2023/12/05 03:44:48;;;;;;;34.03;12.77;;;-6.20;99.90;;;;;;4438399;27;659416;-70
2023/12/05 03:47:35;;;;;;;39.30;14.37;;;-6.30;99.90;;;;;;4454521;27;660427;-70
2023/12/05 03:50:23;;;;;;;47.07;16.40;;;-6.40;99.90;;;;;;4436254;28;659606;-70
2023/12/05 03:53:11;;;;;;;50.73;19.30;;;-6.50;99.90;;;;;;4446473;28;660551;-70
2023/12/05 03:55:58;;;;;;;44.97;16.33;;;-6.60;99.90;;;;;;4441769;27;659215;-69
2023/12/05 03:58:45;;;;;;;48.03;17.00;;;-6.50;99.90;;;;;;4463350;27;660732;-69
2023/12/05 04:01:32;;;;;;;37.00;14.33;;;-6.60;99.90;;;;;;4434937;27;659652;-70
2023/12/05 04:04:20;;;;;;;38.27;13.67;;;-6.60;99.90;;;;;;4450087;27;660464;-70
2023/12/05 04:07:07;;;;;;;36.17;13.17;;;-6.60;99.90;;;;;;4455595;27;659435;-70
2023/12/05 04:09:56;;;;;;;31.37;11.53;;;-6.60;99.90;;;;;;4462992;28;660394;-70
2023/12/05 04:12:43;;;;;;;41.67;15.07;;;-6.60;99.90;;;;;;4423568;28;659577;-69
2023/12/05 04:15:30;;;;;;;45.90;14.40;;;-6.60;99.90;;;;;;4451445;27;659769;-69
2023/12/05 04:18:17;;;;;;;45.63;14.68;;;-6.70;99.90;;;;;;4440488;27;659550;-69
2023/12/05 04:21:05;;;;;;;48.73;15.03;;;-6.80;99.90;;;;;;4462353;27;660496;-69
2023/12/05 04:23:53;;;;;;;37.25;14.25;;;-6.70;99.90;;;;;;4444824;28;660001;-70
2023/12/05 04:26:41;;;;;;;50.70;15.00;;;-6.60;99.90;;;;;;4444444;28;660881;-70
2023/12/05 04:29:28;;;;;;;46.15;14.63;;;-6.50;99.90;;;;;;4429275;27;659742;-69
2023/12/05 04:32:16;;;;;;;54.90;16.13;;;-6.40;99.90;;;;;;4450418;27;661198;-69
2023/12/05 04:35:03;;;;;;;55.27;17.60;;;-6.30;99.90;;;;;;4431547;27;659712;-70
2023/12/05 04:37:50;;;;;;;56.70;17.47;;;-6.20;99.90;;;;;;4457960;27;660732;-70
2023/12/05 04:40:38;;;;;;;59.97;17.70;;;-6.10;99.90;;;;;;4433832;27;659865;-70
2023/12/05 04:43:26;;;;;;;47.50;15.53;;;-6.00;99.90;;;;;;4446436;28;660707;-70
2023/12/05 04:46:13;;;;;;;54.28;16.25;;;-6.00;99.90;;;;;;4429179;27;659917;-70
2023/12/05 04:49:00;;;;;;;54.40;16.40;;;-5.90;99.90;;;;;;4447196;27;660103;-69
2023/12/05 04:51:48;;;;;;;52.07;16.23;;;-5.90;99.90;;;;;;4431807;27;661028;-70
2023/12/05 04:54:35;;;;;;;50.50;15.07;;;-5.80;99.90;;;;;;4452116;27;660503;-70
2023/12/05 04:57:22;;;;;;;48.03;15.70;;;-5.80;99.90;;;;;;4437202;28;659421;-69
2023/12/05 05:00:13;;;;;;;47.15;16.63;;;-5.70;99.90;;;;;;4459447;27;659849;-70
2023/12/05 05:03:00;;;;;;;50.03;15.87;;;-5.60;99.90;;;;;;4430993;27;659268;-70
2023/12/05 05:05:48;;;;;;;41.00;14.40;;;-5.50;99.90;;;;;;4436457;27;659762;-70
2023/12/05 05:08:35;;;;;;;41.57;14.00;;;-5.50;99.90;;;;;;4456164;28;661865;-70
2023/12/05 05:11:23;;;;;;;46.80;15.13;;;-5.40;99.90;;;;;;4451984;27;660159;-70
2023/12/05 05:14:10;;;;;;;44.50;14.70;;;-5.30;99.90;;;;;;4438113;28;660839;-70
2023/12/05 05:16:59;;;;;;;39.53;14.03;;;-5.30;99.90;;;;;;4444641;27;661961;-70
2023/12/05 05:19:46;;;;;;;41.80;14.37;;;-5.20;99.90;;;;;;4451254;27;660182;-70
2023/12/05 05:22:34;;;;;;;39.70;14.90;;;-5.10;99.90;;;;;;4422563;28;660460;-70
2023/12/05 05:25:21;;;;;;;42.35;14.07;;;-5.20;99.90;;;;;;4449198;28;659682;-70
2023/12/05 05:28:09;;;;;;;41.93;14.50;;;-5.10;99.90;;;;;;4434270;27;659215;-70
2023/12/05 05:30:58;;;;;;;42.00;15.07;;;-5.00;99.90;;;;;;4442730;28;659579;-70
2023/12/05 05:33:47;;;;;;;39.17;12.83;;;-5.00;99.90;;;;;;4422713;28;660488;-70
2023/12/05 05:36:34;;;;;;;38.83;13.50;;;-5.00;99.90;;;;;;4422147;27;660912;-70
2023/12/05 05:39:21;;;;;;;45.93;14.47;;;-5.00;99.90;;;;;;4453696;27;659950;-70
2023/12/05 05:42:08;;;;;;;38.03;14.43;;;-5.00;99.90;;;;;;4436402;28;659513;-70
2023/12/05 05:44:55;;;;;;;44.27;14.77;;;-4.90;99.90;;;;;;4465503;27;659765;-70
2023/12/05 05:47:42;;;;;;;39.53;14.03;;;-4.90;99.90;;;;;;4434204;27;659649;-70
2023/12/05 05:50:31;;;;;;;37.80;14.77;;;-4.80;99.90;;;;;;4457173;27;660459;-70
2023/12/05 05:53:18;;;;;;;43.20;14.03;;;-4.80;99.90;;;;;;4427898;27;659850;-70
2023/12/05 05:56:07;;;;;;;42.77;16.00;;;-4.90;99.90;;;;;;4459512;27;660194;-70
2023/12/05 05:58:54;;;;;;;59.90;21.57;;;-4.90;99.90;;;;;;4444132;27;659708;-70
2023/12/05 06:01:41;;;;;;;73.03;26.77;;;-4.80;99.90;;;;;;4458151;27;660461;-70
2023/12/05 06:04:28;;;;;;;83.67;29.53;;;-4.80;99.90;;;;;;4423738;28;659834;-70
2023/12/05 06:07:17;;;;;;;74.23;28.10;;;-4.70;99.90;;;;;;4456006;27;659765;-71
2023/12/05 06:10:04;;;;;;;63.33;22.97;;;-4.70;99.90;;;;;;4434427;27;659254;-70
2023/12/05 06:12:51;;;;;;;53.07;20.47;;;-4.60;99.90;;;;;;4456239;28;659542;-71
2023/12/05 06:15:38;;;;;;;66.90;22.67;;;-4.60;99.90;;;;;;4429568;27;659521;-70
2023/12/05 06:18:25;;;;;;;58.03;20.80;;;-4.60;99.90;;;;;;4442012;28;660968;-71
2023/12/05 06:21:13;;;;;;;44.63;16.70;;;-4.60;99.90;;;;;;4432451;28;659780;-70
2023/12/05 06:24:01;;;;;;;43.67;15.00;;;-4.60;99.90;;;;;;4457329;28;659666;-70
2023/12/05 06:26:48;;;;;;;72.03;17.83;;;-4.50;99.90;;;;;;4431683;28;660220;-70
2023/12/05 06:29:35;;;;;;;47.10;17.60;;;-4.50;99.90;;;;;;4441525;28;661799;-70
2023/12/05 06:32:23;;;;;;;49.90;17.67;;;-4.40;99.90;;;;;;4439157;28;659914;-70
2023/12/05 06:35:10;;;;;;;51.50;19.03;;;-4.40;99.90;;;;;;4462875;28;660052;-70
2023/12/05 06:37:57;;;;;;;54.23;19.70;;;-4.40;99.90;;;;;;4443854;28;660296;-70
2023/12/05 06:40:46;;;;;;;53.33;20.73;;;-4.30;99.90;;;;;;4452000;28;660982;-70
2023/12/05 06:43:33;;;;;;;53.80;19.47;;;-4.30;99.90;;;;;;4433504;28;659415;-71
2023/12/05 06:46:20;;;;;;;56.33;21.13;;;-4.30;99.90;;;;;;4455870;28;661474;-71
2023/12/05 06:49:08;;;;;;;55.67;20.53;;;-4.20;99.90;;;;;;4433163;28;659752;-68
2023/12/05 06:51:57;;;;;;;50.00;17.50;;;-4.30;99.90;;;;;;4455092;28;661134;-71
2023/12/05 06:54:45;;;;;;;50.93;19.17;;;-4.20;99.90;;;;;;4435551;28;660227;-71
2023/12/05 06:57:34;;;;;;;49.97;18.80;;;-4.20;99.90;;;;;;4432285;28;659245;-71
2023/12/05 07:00:22;;;;;;;51.60;18.70;;;-4.10;99.90;;;;;;4453952;28;659426;-70
2023/12/05 07:03:11;;;;;;;53.97;19.95;;;-4.00;99.90;;;;;;4421020;28;660459;-71
2023/12/05 07:05:59;;;;;;;50.87;17.90;;;-3.90;99.90;;;;;;4434857;28;659674;-70
2023/12/05 07:08:46;;;;;;;48.70;18.77;;;-3.90;99.90;;;;;;4445658;28;660599;-70
2023/12/05 07:11:33;;;;;;;51.67;20.97;;;-3.90;99.90;;;;;;4439945;28;659797;-70
2023/12/05 07:14:21;;;;;;;53.53;20.37;;;-3.80;99.90;;;;;;4462419;27;659922;-70
2023/12/05 07:17:09;;;;;;;51.03;19.13;;;-3.80;99.90;;;;;;4442781;27;660153;-70
2023/12/05 07:19:56;;;;;;;49.97;20.23;;;-3.80;99.90;;;;;;4460423;27;660297;-70
2023/12/05 07:22:43;;;;;;;53.07;21.83;;;-3.80;99.90;;;;;;4439668;28;659985;-70
2023/12/05 07:25:30;;;;;;;56.63;21.90;;;-3.70;99.90;;;;;;4462288;27;661019;-70
2023/12/05 07:28:18;;;;;;;80.93;26.03;;;-3.70;99.90;;;;;;4443269;27;659500;-70
2023/12/05 07:31:07;;;;;;;102.53;38.17;;;-3.60;99.90;;;;;;4464839;27;660544;-70
2023/12/05 07:33:57;;;;;;;70.33;26.37;;;-3.60;99.90;;;;;;4440943;27;661343;-70
2023/12/05 07:36:44;;;;;;;72.93;27.67;;;-3.40;99.90;;;;;;4434948;27;659925;-70
2023/12/05 07:39:32;;;;;;;60.43;24.83;;;-3.50;99.90;;;;;;4458104;27;659282;-70
2023/12/05 07:42:19;;;;;;;91.30;33.77;;;-3.30;99.90;;;;;;4430522;27;660246;-70
2023/12/05 07:45:07;;;;;;;73.33;27.23;;;-3.40;99.90;;;;;;4457867;27;660013;-70
2023/12/05 07:47:56;;;;;;;77.07;28.23;;;-3.20;99.90;;;;;;4426858;28;660003;-70
2023/12/05 07:50:43;;;;;;;66.75;25.70;;;-3.20;99.90;;;;;;4434250;27;659464;-70
2023/12/05 07:53:31;;;;;;;72.27;25.43;;;-3.10;99.90;;;;;;4444536;28;660646;-70
2023/12/05 07:56:18;;;;;;;73.00;27.70;;;-3.10;99.90;;;;;;4426424;27;659469;-70
2023/12/05 07:59:05;;;;;;;68.23;25.57;;;-3.20;99.90;;;;;;4460966;27;660484;-71
2023/12/05 08:01:52;;;;;;;72.27;28.40;;;-3.40;99.90;;;;;;4441221;27;659847;-70
2023/12/05 08:04:41;;;;;;;69.93;25.67;;;-3.30;99.90;;;;;;4454125;28;660716;-71
2023/12/05 08:07:29;;;;;;;58.77;24.77;;;-3.30;99.90;;;;;;4431649;27;660071;-70
2023/12/05 08:10:17;;;;;;;70.63;25.43;;;-3.30;99.90;;;;;;4448106;28;660410;-70
2023/12/05 08:13:04;;;;;;;56.80;20.63;;;-3.20;99.90;;;;;;4430314;27;660711;-71
2023/12/05 08:15:51;;;;;;;53.70;21.30;;;-3.40;99.90;;;;;;4451800;28;660394;-71
2023/12/05 08:18:38;;;;;;;73.15;24.95;;;-3.40;99.90;;;;;;4440430;27;659603;-71
2023/12/05 08:21:27;;;;;;;72.27;27.37;;;-3.30;99.90;;;;;;4466340;27;661309;-70
2023/12/05 08:24:14;;;;;;;82.50;28.50;;;-3.20;99.90;;;;;;4432604;28;661226;-71
2023/12/05 08:27:02;;;;;;;90.13;30.50;;;-3.10;99.90;;;;;;4453729;27;660013;-70
2023/12/05 08:29:49;;;;;;;80.90;30.93;;;-3.10;99.90;;;;;;4439545;28;660163;-71
2023/12/05 08:32:36;;;;;;;88.03;29.90;;;-3.30;99.90;;;;;;4462132;28;659734;-71
2023/12/05 08:35:23;;;;;;;73.93;26.53;;;-3.40;99.90;;;;;;4435836;27;660274;-70
2023/12/05 08:38:12;;;;;;;126.80;42.70;;;-3.30;99.90;;;;;;4462340;27;659862;-71
2023/12/05 08:40:59;;;;;;;261.13;83.87;;;-3.40;99.90;;;;;;4433713;27;661856;-71
2023/12/05 08:43:46;;;;;;;156.47;51.30;;;-3.50;99.90;;;;;;4455038;27;661015;-70
2023/12/05 08:46:33;;;;;;;153.73;51.97;;;-3.40;99.90;;;;;;4442215;27;660834;-70
2023/12/05 08:49:20;;;;;;;157.50;50.95;;;-3.40;99.90;;;;;;4460765;27;661340;-71
2023/12/05 08:52:08;;;;;;;145.93;49.73;;;-3.10;99.90;;;;;;4444713;27;660716;-70
2023/12/05 08:54:56;;;;;;;183.67;60.53;;;-2.80;99.90;;;;;;4454499;27;662169;-70
2023/12/05 08:57:44;;;;;;;226.50;73.80;;;-2.70;99.90;;;;;;4429135;27;660555;-70
2023/12/05 09:00:31;;;;;;;192.70;66.87;;;-2.60;99.90;;;;;;4445656;27;661735;-71
2023/12/05 09:03:18;;;;;;;199.77;69.73;;;-2.30;99.90;;;;;;4425046;28;660453;-70
2023/12/05 09:06:06;;;;;;;121.18;42.35;;;-2.40;99.90;;;;;;4442429;28;662151;-71
2023/12/05 09:08:54;;;;;;;90.50;31.20;;;-2.30;99.90;;;;;;4432297;28;660965;-71
2023/12/05 09:11:44;;;;;;;193.73;60.83;;;-2.00;99.90;;;;;;4455095;28;660288;-70
2023/12/05 09:14:31;;;;;;;158.40;52.53;;;-1.60;99.90;;;;;;4430295;28;660947;-70
2023/12/05 09:17:19;;;;;;;178.07;61.60;;;-1.50;99.90;;;;;;4432397;28;660896;-71
2023/12/05 09:20:07;;;;;;;171.40;57.25;;;-1.30;99.90;;;;;;4455966;28;661603;-71
2023/12/05 09:22:54;;;;;;;157.30;55.50;;;-0.30;99.90;;;;;;4427973;27;661713;-70
2023/12/05 09:25:42;;;;;;;123.83;45.27;;;0.70;99.90;;;;;;4453023;28;661096;-68
2023/12/05 09:28:31;;;;;;;126.53;44.47;;;1.30;99.90;;;;;;4428715;28;660268;-68
2023/12/05 09:31:19;;;;;;;129.40;45.77;;;1.50;99.90;;;;;;4420918;28;659636;-70
2023/12/05 09:34:06;;;;;;;118.83;42.33;;;1.50;99.90;;;;;;4448448;28;660229;-70
2023/12/05 09:36:53;;;;;;;119.97;42.58;;;2.00;99.90;;;;;;4427727;28;660027;-70
2023/12/05 09:39:40;;;;;;;112.23;43.40;;;3.60;97.10;;;;;;4450581;27;659857;-70
2023/12/05 09:42:28;;;;;;;101.67;39.17;;;4.10;79.30;;;;;;4431818;28;659912;-71
2023/12/05 09:45:16;;;;;;;99.13;37.47;;;5.20;76.90;;;;;;4457744;28;660338;-70
2023/12/05 09:48:05;;;;;;;88.97;33.50;;;6.00;72.90;;;;;;4424091;28;659397;-70
2023/12/05 09:50:53;;;;;;;103.80;40.53;;;7.00;62.40;;;;;;4423578;27;658791;-69
2023/12/05 09:53:40;;;;;;;74.83;30.20;;;7.50;59.00;;;;;;4443612;28;661057;-69
2023/12/05 09:56:28;;;;;;;79.43;31.97;;;7.40;59.80;;;;;;4442312;28;658959;-69
2023/12/05 09:59:15;;;;;;;94.57;38.40;;;8.20;56.40;;;;;;4455279;28;659853;-70
2023/12/05 10:02:04;;;;;;;88.97;38.10;;;8.80;55.90;;;;;;4437027;28;658860;-69
2023/12/05 10:04:55;;;;;;;52.97;25.57;;;8.80;54.90;;;;;;4459723;28;658729;-70
2023/12/05 10:07:43;;;;;;;50.08;21.98;;;9.30;51.80;;;;;;4404198;28;659433;-70
2023/12/05 10:10:30;;;;;;;57.57;26.97;;;9.50;49.60;;;;;;4451483;28;659168;-70
2023/12/05 10:13:18;;;;;;;52.67;23.70;;;9.90;48.10;;;;;;4423806;28;658695;-69
2023/12/05 10:16:06;;;;;;;53.80;22.93;;;9.60;47.80;;;;;;4459702;28;659498;-70
2023/12/05 10:18:55;;;;;;;31.57;16.67;;;9.20;49.00;;;;;;4435359;27;659801;-70
2023/12/05 10:21:44;;;;;;;37.00;17.40;;;8.90;50.20;;;;;;4441615;28;658426;-69
2023/12/05 10:24:39;;;;;;;43.93;18.83;;;9.80;47.30;;;;;;4449808;28;658408;-70
2023/12/05 10:27:27;;;;;;;53.70;22.77;;;9.60;46.30;;;;;;4419127;28;658665;-69
2023/12/05 10:30:16;;;;;;;49.60;22.20;;;8.90;50.30;;;;;;4426829;28;658746;-69
2023/12/05 10:33:13;;;;;;;45.90;20.43;;;9.10;48.70;;;;;;4440503;28;658555;-69
2023/12/05 10:36:04;;;;;;;42.43;17.77;;;9.50;47.40;;;;;;4434261;28;659074;-70
2023/12/05 10:38:51;;;;;;;37.17;16.50;;;9.80;47.60;;;;;;4414878;28;659568;-70
2023/12/05 10:41:38;;;;;;;32.87;14.93;;;8.90;46.70;;;;;;4431719;28;658351;-69
2023/12/05 10:44:25;;;;;;;32.50;15.23;;;8.00;49.60;;;;;;4461344;28;659014;-70
2023/12/05 10:47:13;;;;;;;29.10;13.30;;;8.10;50.10;;;;;;4438081;28;658773;-69
2023/12/05 10:50:00;;;;;;;28.90;14.03;;;7.90;50.10;;;;;;4467391;27;659528;-69
2023/12/05 10:52:49;;;;;;;27.83;12.93;;;8.10;49.60;;;;;;4441246;28;658955;-69
2023/12/05 10:55:36;;;;;;;34.23;14.77;;;8.10;49.60;;;;;;4463210;27;658909;-69
2023/12/05 10:58:23;;;;;;;38.57;16.93;;;7.50;49.20;;;;;;4425990;28;658633;-69
2023/12/05 11:01:11;;;;;;;37.40;15.83;;;6.40;51.90;;;;;;4457699;28;659629;-69
2023/12/05 11:04:00;;;;;;;33.93;15.10;;;5.50;54.70;;;;;;4441501;27;658842;-69
2023/12/05 11:06:47;;;;;;;43.97;17.57;;;5.10;57.10;;;;;;4441080;28;658643;-68
2023/12/05 11:09:36;;;;;;;40.53;16.93;;;5.40;57.10;;;;;;4445298;28;659294;-69
2023/12/05 11:12:23;;;;;;;39.37;17.30;;;5.40;56.50;;;;;;4430859;28;658456;-69
2023/12/05 11:15:11;;;;;;;20.63;10.33;;;5.50;58.20;;;;;;4438399;28;659771;-69
2023/12/05 11:17:59;;;;;;;23.00;10.13;;;6.50;57.20;;;;;;4418611;28;658633;-70
2023/12/05 11:21:05;;;;;;;19.37;9.87;;;8.20;52.00;;;;;;4441906;28;658814;-70
2023/12/05 11:24:21;;;;;;;22.50;9.70;;;9.50;47.50;;;;;;4398107;28;658677;-69
2023/12/05 11:27:32;;;;;;;20.07;9.87;;;8.60;46.40;;;;;;4391933;28;659151;-69
2023/12/05 11:30:49;;;;;;;24.97;11.47;;;8.90;46.10;;;;;;4412291;28;658263;-69
2023/12/05 11:33:50;;;;;;;19.37;7.97;;;9.50;48.40;;;;;;4420128;28;658957;-69
2023/12/05 11:36:41;;;;;;;18.90;8.93;;;10.20;45.00;;;;;;4404057;28;658098;-69
2023/12/05 11:39:28;;;;;;;19.00;9.73;;;11.30;41.90;;;;;;4424900;28;658521;-69
2023/12/05 11:42:15;;;;;;;19.63;9.50;;;9.50;42.80;;;;;;4438361;28;658996;-70
2023/12/05 11:45:22;;;;;;;20.23;9.03;;;10.90;44.00;;;;;;4421992;28;657748;-69
2023/12/05 11:48:10;;;;;;;22.13;10.40;;;12.30;40.80;;;;;;4419194;28;659264;-70
2023/12/05 11:50:58;;;;;;;20.97;10.33;;;10.80;36.30;;;;;;4420809;28;660944;-69
2023/12/05 11:53:45;;;;;;;21.80;9.63;;;10.70;39.70;;;;;;4436504;28;660616;-69
2023/12/05 11:56:32;;;;;;;17.23;8.27;;;10.30;41.00;;;;;;4435686;28;658524;-69
2023/12/05 11:59:20;;;;;;;18.23;8.40;;;11.80;41.60;;;;;;4444574;28;659528;-69
2023/12/05 12:02:11;;;;;;;18.77;9.50;;;12.30;38.50;;;;;;4424808;28;659559;-69
2023/12/05 12:05:00;;;;;;;22.07;11.50;;;11.50;38.30;;;;;;4413327;28;658431;-69
2023/12/05 12:07:50;;;;;;;25.93;12.70;;;10.90;41.40;;;;;;4436247;28;659587;-69
2023/12/05 12:10:37;;;;;;;30.00;15.57;;;11.30;40.00;;;;;;4436462;28;659701;-69
2023/12/05 12:13:25;;;;;;;22.25;11.45;;;11.50;38.90;;;;;;4430473;28;660385;-69
2023/12/05 12:16:14;;;;;;;21.93;10.50;;;10.60;41.00;;;;;;4424398;28;660098;-69
2023/12/05 12:19:04;;;;;;;23.97;11.13;;;10.40;40.70;;;;;;4412839;28;660753;-69
2023/12/05 12:21:51;;;;;;;21.57;10.80;;;8.70;42.60;;;;;;4409644;28;659873;-69
2023/12/05 12:24:39;;;;;;;22.17;11.53;;;8.30;46.70;;;;;;4422954;28;658381;-69
2023/12/05 12:27:35;;;;;;;25.30;11.93;;;8.10;46.00;;;;;;4437600;28;658821;-69
2023/12/05 12:30:22;;;;;;;30.23;14.00;;;7.80;47.10;;;;;;4406591;28;659246;-69
2023/12/05 12:33:13;;;;;;;28.83;12.93;;;7.40;48.90;;;;;;4410433;28;659289;-69
2023/12/05 12:36:02;;;;;;;28.80;14.17;;;6.50;48.60;;;;;;4418371;28;659220;-69
2023/12/05 12:38:49;;;;;;;32.77;14.97;;;5.60;51.40;;;;;;4401124;28;659667;-69
2023/12/05 12:41:38;;;;;;;35.87;15.20;;;4.60;55.90;;;;;;4442621;28;659174;-68
2023/12/05 12:44:26;;;;;;;27.38;12.88;;;4.30;55.40;;;;;;4417743;28;659775;-69
2023/12/05 12:47:14;;;;;;;23.83;11.23;;;4.00;61.10;;;;;;4411570;28;658551;-69
2023/12/05 12:50:02;;;;;;;26.23;11.60;;;4.00;61.80;;;;;;4443786;28;659510;-68
2023/12/05 12:52:53;;;;;;;25.33;11.13;;;3.60;62.90;;;;;;4411662;28;659433;-69
2023/12/05 12:55:40;;;;;;;23.70;10.97;;;3.50;62.30;;;;;;4400816;28;660020;-69
2023/12/05 12:58:33;;;;;;;23.97;10.40;;;3.60;61.60;;;;;;4432432;28;658810;-69
2023/12/05 13:01:21;;;;;;;23.60;10.90;;;3.70;64.90;;;;;;4414867;28;659799;-69
2023/12/05 13:04:11;;;;;;;22.90;10.33;;;4.20;62.70;;;;;;4419845;28;658516;-69
2023/12/05 13:06:58;;;;;;;23.27;10.60;;;4.10;61.00;;;;;;4423300;28;658819;-68
2023/12/05 13:09:46;;;;;;;22.27;10.47;;;4.20;60.80;;;;;;4435130;28;660384;-68
2023/12/05 13:12:33;;;;;;;21.37;10.73;;;3.80;62.10;;;;;;4411595;28;658529;-68
2023/12/05 13:15:25;;;;;;;25.13;11.00;;;3.50;64.10;;;;;;4444210;28;659862;-69
2023/12/05 13:18:12;;;;;;;23.37;11.37;;;3.30;66.50;;;;;;4405764;28;659209;-68
2023/12/05 13:20:59;;;;;;;26.63;12.93;;;2.80;71.70;;;;;;4444848;28;658621;-69
2023/12/05 13:23:47;;;;;;;31.70;14.53;;;2.40;78.20;;;;;;4437881;28;659018;-69
2023/12/05 13:26:37;;;;;;;41.03;16.83;;;2.30;79.80;;;;;;4403852;28;660099;-69
2023/12/05 13:29:24;;;;;;;58.60;21.70;;;1.90;91.40;;;;;;4412274;28;659746;-68
2023/12/05 13:32:11;;;;;;;60.07;22.67;;;1.80;99.10;;;;;;4433812;28;658625;-68
2023/12/05 13:34:58;;;;;;;64.83;23.87;;;1.90;94.30;;;;;;4419580;28;659116;-69
2023/12/05 13:37:45;;;;;;;75.63;26.27;;;1.60;95.90;;;;;;4437788;28;659122;-69
2023/12/05 13:40:33;;;;;;;72.80;26.73;;;1.20;99.90;;;;;;4424782;28;658578;-68
2023/12/05 13:43:21;;;;;;;55.67;20.67;;;0.80;99.90;;;;;;4436877;28;659530;-68
2023/12/05 13:46:11;;;;;;;64.63;23.23;;;0.70;99.90;;;;;;4422120;28;658410;-68
2023/12/05 13:49:04;;;;;;;65.13;23.20;;;0.50;99.90;;;;;;4424855;28;658525;-68
2023/12/05 13:51:51;;;;;;;69.63;26.80;;;0.80;99.90;;;;;;4416241;28;659746;-68
2023/12/05 13:54:38;;;;;;;80.27;28.93;;;1.20;99.90;;;;;;4415461;28;658901;-68
2023/12/05 13:57:25;;;;;;;82.23;30.20;;;1.60;99.90;;;;;;4440501;28;659070;-68
2023/12/05 14:00:15;;;;;;;75.78;27.75;;;2.10;99.90;;;;;;4419547;28;658297;-69
2023/12/05 14:03:03;;;;;;;80.77;29.43;;;1.80;99.90;;;;;;4412652;28;659687;-69
2023/12/05 14:05:50;;;;;;;67.53;27.43;;;1.80;99.90;;;;;;4434711;28;659636;-69